AAL15 KLAX-KLAS
Flight info
| Callsign | AAL15 |
|---|---|
| Flight time | N/A |
| Altitude | 27000 |
| Route | ORCKA5 MISEN RNDRZ4 |
| Aircraft | B738/M-SDE2E3FGHIRWXY/LB1 |
Departure
| Time | N/A |
|---|---|
| Airport | Los Angeles International Airport (KLAX) |
Arrival
| Time | 2026-04-30 19:52 |
|---|---|
| Airport | Harry Reid International Airport (KLAS) |
| Time | Latitude | Longitude | Altitude | Speed | Heading |
|---|---|---|---|---|---|
| 2026-04-30 19:43 | 36.00949 | -115.21708 | 9969 ft | 283 kts | 91° |
| 2026-04-30 19:43 | 36.00827 | -115.19330 | 9836 ft | 273 kts | 91° |
| 2026-04-30 19:44 | 36.00597 | -115.14735 | 9401 ft | 260 kts | 90° |
| 2026-04-30 19:44 | 36.00486 | -115.12538 | 9320 ft | 248 kts | 90° |
| 2026-04-30 19:44 | 36.00380 | -115.10459 | 9198 ft | 240 kts | 90° |
| 2026-04-30 19:44 | 36.00278 | -115.08410 | 8919 ft | 239 kts | 90° |
| 2026-04-30 19:45 | 36.00175 | -115.06367 | 8644 ft | 238 kts | 90° |
| 2026-04-30 19:45 | 36.00074 | -115.04343 | 8379 ft | 238 kts | 90° |
| 2026-04-30 19:45 | 35.99971 | -115.02315 | 8113 ft | 239 kts | 90° |
| 2026-04-30 19:45 | 35.99873 | -115.00290 | 7939 ft | 236 kts | 89° |
| 2026-04-30 19:46 | 35.99850 | -114.99023 | 7709 ft | 242 kts | 86° |
| 2026-04-30 19:46 | 35.99860 | -114.96951 | 7294 ft | 235 kts | 85° |
| 2026-04-30 19:46 | 35.99885 | -114.95009 | 6989 ft | 215 kts | 82° |
| 2026-04-30 19:46 | 36.00168 | -114.93301 | 6708 ft | 197 kts | 62° |
| 2026-04-30 19:47 | 36.00938 | -114.91989 | 6441 ft | 185 kts | 40° |
| 2026-04-30 19:47 | 36.01603 | -114.91340 | 6287 ft | 184 kts | 32° |
| 2026-04-30 19:47 | 36.03186 | -114.90579 | 5961 ft | 186 kts | 5° |
| 2026-04-30 19:47 | 36.04483 | -114.90715 | 5721 ft | 189 kts | 348° |
| 2026-04-30 19:48 | 36.05697 | -114.91319 | 5467 ft | 190 kts | 330° |
| 2026-04-30 19:48 | 36.06659 | -114.92459 | 5221 ft | 195 kts | 308° |
| 2026-04-30 19:48 | 36.07227 | -114.93996 | 4964 ft | 199 kts | 287° |
| 2026-04-30 19:48 | 36.07340 | -114.95011 | 4827 ft | 201 kts | 277° |
| 2026-04-30 19:49 | 36.07365 | -114.98286 | 4329 ft | 197 kts | 274° |
| 2026-04-30 19:49 | 36.07362 | -114.99924 | 4043 ft | 184 kts | 274° |
| 2026-04-30 19:50 | 36.07361 | -115.01441 | 3805 ft | 172 kts | 274° |
| 2026-04-30 19:50 | 36.07365 | -115.02888 | 3597 ft | 168 kts | 275° |
| 2026-04-30 19:50 | 36.07368 | -115.04310 | 3365 ft | 163 kts | 275° |
| 2026-04-30 19:50 | 36.07372 | -115.05758 | 3209 ft | 190 kts | 274° |
| 2026-04-30 19:51 | 36.07382 | -115.07551 | 3011 ft | 214 kts | 273° |
| 2026-04-30 19:51 | 36.07363 | -115.09315 | 2925 ft | 200 kts | 271° |
| 2026-04-30 19:51 | 36.07338 | -115.11044 | 2390 ft | 196 kts | 272° |
| 2026-04-30 19:51 | 36.07360 | -115.12637 | 2134 ft | 176 kts | 273° |
| 2026-04-30 19:52 | 36.07357 | -115.14013 | 2102 ft | 145 kts | 270° |
| 2026-04-30 19:52 | 36.07366 | -115.14956 | 2130 ft | 64 kts | 271° |
| 2026-04-30 19:52 | 36.07397 | -115.15355 | 2144 ft | 29 kts | 291° |
| 2026-04-30 19:52 | 36.07462 | -115.15522 | 2149 ft | 18 kts | 297° |
| 2026-04-30 19:53 | 36.07544 | -115.15646 | 2152 ft | 17 kts | 316° |
| 2026-04-30 19:53 | 36.07639 | -115.15751 | 2155 ft | 20 kts | 319° |
| 2026-04-30 19:53 | 36.07764 | -115.15836 | 2155 ft | 21 kts | 357° |
| 2026-04-30 19:53 | 36.07807 | -115.15753 | 2151 ft | 16 kts | 90° |
| 2026-04-30 19:54 | 36.07812 | -115.15577 | 2145 ft | 24 kts | 85° |
| 2026-04-30 19:54 | 36.07818 | -115.15327 | 2135 ft | 33 kts | 88° |
| 2026-04-30 19:54 | 36.07805 | -115.15021 | 2124 ft | 38 kts | 93° |
| 2026-04-30 19:54 | 36.07858 | -115.14818 | 2115 ft | 21 kts | 5° |
| 2026-04-30 19:55 | 36.07931 | -115.14804 | 2114 ft | 5 kts | 21° |
| 2026-04-30 19:55 | 36.07974 | -115.14761 | 2111 ft | 8 kts | 65° |
| 2026-04-30 19:55 | 36.07992 | -115.14707 | 2109 ft | 0 kts | 66° |